Skip Navigation Links
NOAA logo - Click to go to the NOAA homepage
NOAA's National Weather Service
Alaska Aviation Weather Unit
  NWS logo - Click to go to the NWS homepage
Left Navbar Graphic     15 AKDT = 23 GMT

   
NOAA is celebrating 200 years of science, service, and stewardship. Visit the NOAA 200th celebration Web site to learn more.
USA.gov is the U.S. Government's official Web portal to all Federal, state and local government Web resources and services.
Facebook
NWS on Facebook

Important Change Regarding the AAWU Web Presence

 

Over the last several months, the AAWU has been working to navigate its webpages to a nationally supported server. Security, as well as other needs, have necessitated the change.  We have been given an extension for the site changeover while we diligently work at addressing feedback received. As of July 14, 2017, aawu.arh.noaa.gov will be discontinued. The new AAWU web address is weather.gov/aawu. It is now live and will run in-parallel with the old site until it is discontinued on July 14, 2017. Please continue to send any feedback or questions regarding the new webpages to nws.ar.aawu.webauthors@noaa.gov.  Thank you for your patience during this time of transition.
AAWU Home :: Display TAF Add Bookmark
TAF PAPG 192327Z 2000/2024  VRB03KT P6SM -SHRA FEW015 BKN035
     FM200600 20005KT 5SM -SHRA SCT015 OVC025
     FM201500 14004KT P6SM -SHRA SCT010 BKN035
      AMD LTD TO CLD VIS AND WIND 2006/2015=

7898
FTAK31 PAJN 192327
TAFAGY
TAF
SPECI PAPG 191703Z 14003KT 10SM -RA BKN007 OVC049 05/04 A2895 RMK AO2
     RAB02 P0000=

SPECI PAPG 191710Z 00000KT 10SM -RA SCT012 SCT030 OVC049 05/04 RMK AO2
     RAB02 P0000 $=

METAR PAPG 191756Z 07003KT 10SM SCT015 SCT030 OVC049 06/05 A2897 RMK AO2
     RAB02E12 SLP813 P0000 60000 T00560050 10056 20033 53021=

SPECI PAPG 191903Z 33004KT 10SM FEW005 BKN032 OVC047 06/05 A2898 RMK
     AO2=

METAR PAPG 191956Z 00000KT 10SM SCT015 SCT030 BKN055 07/05 A2900 RMK
 AO2 RAB05E56 SLP825 P0000 T00670050=

METAR PAPG 192056Z 10004KT 10SM FEW015 SCT031 BKN046 07/04 A2902 RMK AO2
     SLP831 60000 T00670044 53018=

METAR PAPG 192156Z 33003KT 10SM BKN031 07/04 A2904 RMK AO2 SLP835
 T00670044=

METAR PAPG 192256Z 00000KT 10SM OVC032 07/05 A2905 RMK AO2 SLP840
 T00720050=


NOAA's National Weather Service
Alaska Aviation Weather Unit
6930 Sand Lake Road
Anchorage, AK 99502-1845
Disclaimer
Credits
Glossary
Privacy Policy
About Us
Career Opportunities
Contact AAWU Internet Services Site last modified: April, 17th 2012